Time;durP1;ratioP1;P1;durP2;ratioP2;P2;SDS_P1;SDS_P2;PMS_P1;PMS_P2;Temp;Humidity;BMP_temperature;BMP_pressure;BME280_temperature;BME280_humidity;BME280_pressure;Samples;Min_cycle;Max_cycle;Signal;HPM_P1;HPM_P2
2021/10/03 00:01:02;;;;;;;;;;;;;;;;;;5030661;28;20450;-66
2021/10/03 00:03:28;;;;;;;;;;;;;;;;;;5030623;28;19917;-66
2021/10/03 00:05:54;;;;;;;;;;;;;;;;;;5030634;28;19909;-68
2021/10/03 00:08:20;;;;;;;;;;;;;;;;;;5030586;28;19973;-67
2021/10/03 00:10:46;;;;;;;;;;;;;;;;;;5030647;28;19932;-66
2021/10/03 00:13:12;;;;;;;;;;;;;;;;;;5030391;28;19932;-67
2021/10/03 00:15:38;;;;;;;;;;;;;;;;;;5030382;28;19909;-66
2021/10/03 00:18:04;;;;;;;;;;;;;;;;;;5030006;28;19905;-67
2021/10/03 00:20:30;;;;;;;;;;;;;;;;;;5030282;28;19912;-67
2021/10/03 00:22:59;;;;;;;;;;;;;;;;;;5030305;28;19956;-67
2021/10/03 00:25:28;;;;;;;;;;;;;;;;;;5030284;28;19905;-70
2021/10/03 00:27:54;;;;;;;;;;;;;;;;;;5029983;28;19912;-67
2021/10/03 00:30:20;;;;;;;;;;;;;;;;;;5030075;28;20282;-69
2021/10/03 00:32:46;;;;;;;;;;;;;;;;;;5030320;28;19911;-66
2021/10/03 00:35:12;;;;;;;;;;;;;;;;;;5029795;28;19909;-66
2021/10/03 00:37:38;;;;;;;;;;;;;;;;;;5030193;28;19910;-67
2021/10/03 00:40:04;;;;;;;;;;;;;;;;;;5029914;28;19912;-66
2021/10/03 00:42:29;;;;;;;;;;;;;;;;;;5028901;28;19963;-66
2021/10/03 00:44:55;;;;;;;;;;;;;;;;;;5029670;28;20291;-67
2021/10/03 00:47:21;;;;;;;;;;;;;;;;;;5029775;28;19906;-66
2021/10/03 00:49:47;;;;;;;;;;;;;;;;;;5028630;28;20423;-67
2021/10/03 00:52:13;;;;;;;;;;;;;;;;;;5028720;28;19916;-67
2021/10/03 00:54:39;;;;;;;;;;;;;;;;;;5028468;28;19910;-67
2021/10/03 00:57:05;;;;;;;;;;;;;;;;;;5029694;28;19906;-66
2021/10/03 00:59:31;;;;;;;;;;;;;;;;;;5029680;28;19913;-67
2021/10/03 01:01:57;;;;;;;;;;;;;;;;;;5029264;28;19912;-67
2021/10/03 01:04:23;;;;;;;;;;;;;;;;;;5029667;28;19905;-67
2021/10/03 01:06:51;;;;;;;;;;;;;;;;;;5029736;28;19905;-66
2021/10/03 01:09:17;;;;;;;;;;;;;;;;;;5029557;28;19959;-67
2021/10/03 01:11:43;;;;;;;;;;;;;;;;;;5029369;28;19906;-66
2021/10/03 01:14:09;;;;;;;;;;;;;;;;;;5029456;28;19960;-67
2021/10/03 01:16:35;;;;;;;;;;;;;;;;;;5029422;28;19905;-66
2021/10/03 01:19:01;;;;;;;;;;;;;;;;;;5029265;28;20253;-67
2021/10/03 01:21:27;;;;;;;;;;;;;;;;;;5028128;28;19906;-67
2021/10/03 01:23:53;;;;;;;;;;;;;;;;;;5029145;28;20280;-67
2021/10/03 01:26:19;;;;;;;;;;;;;;;;;;5029115;28;19905;-67
2021/10/03 01:28:44;;;;;;;;;;;;;;;;;;5029142;28;19979;-67
2021/10/03 01:31:10;;;;;;;;;;;;;;;;;;5028819;28;19912;-67
2021/10/03 01:33:36;;;;;;;;;;;;;;;;;;5028846;28;19909;-67
2021/10/03 01:36:05;;;;;;;;;;;;;;;;;;5028810;28;19905;-66
2021/10/03 01:38:31;;;;;;;;;;;;;;;;;;5028897;28;20016;-67
2021/10/03 01:40:57;;;;;;;;;;;;;;;;;;5027365;28;20364;-69
2021/10/03 01:43:23;;;;;;;;;;;;;;;;;;5028664;28;19924;-67
2021/10/03 01:45:49;;;;;;;;;;;;;;;;;;5028633;28;19917;-67
2021/10/03 01:48:15;;;;;;;;;;;;;;;;;;5028418;28;19905;-67
2021/10/03 01:50:41;;;;;;;;;;;;;;;;;;5028566;28;19905;-67
2021/10/03 01:53:07;;;;;;;;;;;;;;;;;;5028410;28;19905;-68
2021/10/03 01:55:33;;;;;;;;;;;;;;;;;;5028587;28;19906;-67
2021/10/03 01:57:59;;;;;;;;;;;;;;;;;;5028484;28;19936;-67
2021/10/03 02:00:25;;;;;;;;;;;;;;;;;;5028320;28;19905;-67
2021/10/03 02:02:51;;;;;;;;;;;;;;;;;;5026659;28;19981;-66
2021/10/03 02:05:17;;;;;;;;;;;;;;;;;;5028201;28;19906;-66
2021/10/03 02:07:42;;;;;;;;;;;;;;;;;;5026799;28;19909;-67
2021/10/03 02:10:08;;;;;;;;;;;;;;;;;;5028098;28;20052;-68
2021/10/03 02:12:34;;;;;;;;;;;;;;;;;;5027966;28;19912;-66
2021/10/03 02:15:00;;;;;;;;;;;;;;;;;;5028137;28;19916;-67
2021/10/03 02:17:30;;;;;;;;;;;;;;;;;;5028114;28;19909;-66
2021/10/03 02:19:56;;;;;;;;;;;;;;;;;;5028124;28;20356;-66
2021/10/03 02:22:22;;;;;;;;;;;;;;;;;;5028012;28;19928;-67
2021/10/03 02:24:54;;;;;;;;;;;;;;;;;;5027881;28;19909;-67
2021/10/03 02:27:20;;;;;;;;;;;;;;;;;;5027946;28;19906;-66
2021/10/03 02:29:46;;;;;;;;;;;;;;;;;;5027961;28;19905;-66
2021/10/03 02:32:12;;;;;;;;;;;;;;;;;;5027926;28;19937;-66
2021/10/03 02:34:38;;;;;;;;;;;;;;;;;;5027571;28;20353;-67
2021/10/03 02:37:04;;;;;;;;;;;;;;;;;;5027975;28;19906;-67
2021/10/03 02:39:30;;;;;;;;;;;;;;;;;;5026705;28;19905;-67
2021/10/03 02:41:56;;;;;;;;;;;;;;;;;;5027989;28;20012;-69
2021/10/03 02:44:22;;;;;;;;;;;;;;;;;;5027546;28;19921;-67
2021/10/03 02:46:47;;;;;;;;;;;;;;;;;;5027596;28;19909;-66
2021/10/03 02:49:13;;;;;;;;;;;;;;;;;;5027515;28;19916;-66
2021/10/03 02:51:39;;;;;;;;;;;;;;;;;;5027669;28;19905;-65
2021/10/03 02:54:05;;;;;;;;;;;;;;;;;;5027566;28;19909;-65
2021/10/03 02:56:32;;;;;;;;;;;;;;;;;;5027651;28;19912;-66
2021/10/03 02:58:58;;;;;;;;;;;;;;;;;;5027711;28;20000;-67
2021/10/03 03:01:24;;;;;;;;;;;;;;;;;;5027431;28;19910;-68
2021/10/03 03:03:51;;;;;;;;;;;;;;;;;;5027328;28;19963;-67
2021/10/03 03:06:17;;;;;;;;;;;;;;;;;;5027441;28;19963;-68
2021/10/03 03:08:43;;;;;;;;;;;;;;;;;;5027553;28;20267;-66
2021/10/03 03:11:08;;;;;;;;;;;;;;;;;;5027357;28;19909;-69
2021/10/03 03:13:34;;;;;;;;;;;;;;;;;;5026530;28;19910;-68
2021/10/03 03:16:00;;;;;;;;;;;;;;;;;;5027297;28;19928;-69
2021/10/03 03:18:26;;;;;;;;;;;;;;;;;;5027406;28;20367;-68
2021/10/03 03:20:52;;;;;;;;;;;;;;;;;;5026003;28;19905;-69
2021/10/03 03:23:18;;;;;;;;;;;;;;;;;;5027326;28;20390;-68
2021/10/03 03:25:44;;;;;;;;;;;;;;;;;;5027053;28;19913;-68
2021/10/03 03:28:10;;;;;;;;;;;;;;;;;;5025868;28;19907;-68
2021/10/03 03:30:36;;;;;;;;;;;;;;;;;;5027018;28;19906;-66
2021/10/03 03:33:02;;;;;;;;;;;;;;;;;;5027009;28;19906;-68
2021/10/03 03:35:28;;;;;;;;;;;;;;;;;;5027232;28;19916;-67
2021/10/03 03:37:54;;;;;;;;;;;;;;;;;;5027117;28;19960;-68
2021/10/03 03:40:20;;;;;;;;;;;;;;;;;;5026832;28;19906;-68
2021/10/03 03:42:46;;;;;;;;;;;;;;;;;;5026846;28;19996;-67
2021/10/03 03:45:12;;;;;;;;;;;;;;;;;;5027128;28;19963;-67
2021/10/03 03:47:37;;;;;;;;;;;;;;;;;;5026964;28;20276;-68
2021/10/03 03:50:03;;;;;;;;;;;;;;;;;;5026924;28;19905;-68
2021/10/03 03:52:29;;;;;;;;;;;;;;;;;;5027121;28;19909;-67
2021/10/03 03:54:55;;;;;;;;;;;;;;;;;;5026933;28;19909;-67
2021/10/03 03:57:21;;;;;;;;;;;;;;;;;;5026763;28;19905;-68
2021/10/03 03:59:47;;;;;;;;;;;;;;;;;;5026954;28;19952;-68
2021/10/03 04:02:15;;;;;;;;;;;;;;;;;;5026969;28;19909;-69
2021/10/03 04:04:41;;;;;;;;;;;;;;;;;;5026699;28;19909;-67
2021/10/03 04:07:07;;;;;;;;;;;;;;;;;;5026706;28;19905;-67
2021/10/03 04:09:34;;;;;;;;;;;;;;;;;;5026696;28;19976;-68
2021/10/03 04:12:00;;;;;;;;;;;;;;;;;;5026869;28;19944;-67
2021/10/03 04:14:26;;;;;;;;;;;;;;;;;;5026494;28;19909;-67
2021/10/03 04:16:52;;;;;;;;;;;;;;;;;;5026628;28;19906;-68
2021/10/03 04:19:18;;;;;;;;;;;;;;;;;;5026491;28;19909;-67
2021/10/03 04:21:44;;;;;;;;;;;;;;;;;;5026583;28;19906;-67
2021/10/03 04:24:09;;;;;;;;;;;;;;;;;;5027140;28;19905;-67
2021/10/03 04:26:35;;;;;;;;;;;;;;;;;;5030308;28;19905;-67
2021/10/03 04:29:01;;;;;;;;;;;;;;;;;;5030110;28;19912;-67
2021/10/03 04:31:27;;;;;;;;;;;;;;;;;;5030210;28;19906;-67
2021/10/03 04:33:56;;;;;;;;;;;;;;;;;;5030088;28;20356;-67
2021/10/03 04:36:22;;;;;;;;;;;;;;;;;;5030182;28;19906;-67
2021/10/03 04:38:48;;;;;;;;;;;;;;;;;;5029972;28;19909;-67
2021/10/03 04:41:14;;;;;;;;;;;;;;;;;;5029904;28;19969;-67
2021/10/03 04:43:40;;;;;;;;;;;;;;;;;;5029824;28;20422;-67
2021/10/03 04:46:06;;;;;;;;;;;;;;;;;;5029881;28;19977;-67
2021/10/03 04:48:32;;;;;;;;;;;;;;;;;;5029806;28;19948;-67
2021/10/03 04:50:58;;;;;;;;;;;;;;;;;;5030039;28;19932;-68
2021/10/03 04:53:24;;;;;;;;;;;;;;;;;;5028348;28;19916;-67
2021/10/03 04:55:50;;;;;;;;;;;;;;;;;;5029812;28;19980;-67
2021/10/03 04:58:16;;;;;;;;;;;;;;;;;;5029806;28;19905;-67
2021/10/03 05:00:42;;;;;;;;;;;;;;;;;;5029845;28;19905;-67
2021/10/03 05:03:08;;;;;;;;;;;;;;;;;;5029476;28;19916;-68
2021/10/03 05:05:33;;;;;;;;;;;;;;;;;;5029429;28;19905;-68
2021/10/03 05:07:59;;;;;;;;;;;;;;;;;;5029422;28;19905;-67
2021/10/03 05:10:25;;;;;;;;;;;;;;;;;;5029425;28;19905;-69
2021/10/03 05:12:51;;;;;;;;;;;;;;;;;;5029946;28;19913;-67
2021/10/03 05:15:17;;;;;;;;;;;;;;;;;;5029469;28;19976;-68
2021/10/03 05:17:43;;;;;;;;;;;;;;;;;;5028255;28;19905;-67
2021/10/03 05:20:09;;;;;;;;;;;;;;;;;;5029321;28;19912;-68
2021/10/03 05:22:35;;;;;;;;;;;;;;;;;;5029382;28;19906;-67
2021/10/03 05:25:01;;;;;;;;;;;;;;;;;;5029203;28;20351;-67
2021/10/03 05:27:28;;;;;;;;;;;;;;;;;;5029277;28;19911;-67
2021/10/03 05:29:54;;;;;;;;;;;;;;;;;;5029012;28;19906;-65
2021/10/03 05:32:20;;;;;;;;;;;;;;;;;;5028980;28;19912;-67
2021/10/03 05:34:45;;;;;;;;;;;;;;;;;;5029025;28;19909;-67
2021/10/03 05:37:11;;;;;;;;;;;;;;;;;;5026939;28;19905;-68
2021/10/03 05:39:37;;;;;;;;;;;;;;;;;;5028711;28;19905;-67
2021/10/03 05:42:03;;;;;;;;;;;;;;;;;;5028894;28;20336;-67
2021/10/03 05:44:29;;;;;;;;;;;;;;;;;;5028572;28;20017;-68
2021/10/03 05:46:55;;;;;;;;;;;;;;;;;;5028704;28;19909;-67
2021/10/03 05:49:21;;;;;;;;;;;;;;;;;;5028582;28;19905;-67
2021/10/03 05:51:47;;;;;;;;;;;;;;;;;;5028563;28;19992;-67
2021/10/03 05:54:13;;;;;;;;;;;;;;;;;;5028530;28;19913;-67
2021/10/03 05:56:40;;;;;;;;;;;;;;;;;;5028452;28;19912;-67
2021/10/03 05:59:11;;;;;;;;;;;;;;;;;;5028916;28;19905;-67
2021/10/03 06:01:37;;;;;;;;;;;;;;;;;;5028432;28;19905;-67
2021/10/03 06:04:03;;;;;;;;;;;;;;;;;;5028371;28;19912;-67
2021/10/03 06:06:30;;;;;;;;;;;;;;;;;;5028488;28;19905;-67
2021/10/03 06:08:55;;;;;;;;;;;;;;;;;;5028774;28;19906;-68
2021/10/03 06:11:21;;;;;;;;;;;;;;;;;;5026971;28;20279;-67
2021/10/03 06:13:47;;;;;;;;;;;;;;;;;;5028455;28;19909;-67
2021/10/03 06:16:13;;;;;;;;;;;;;;;;;;5028507;28;20331;-67
2021/10/03 06:18:39;;;;;;;;;;;;;;;;;;5028353;28;19905;-67
2021/10/03 06:21:13;;;;;;;;;;;;;;;;;;5026940;28;20257;-68
2021/10/03 06:23:39;;;;;;;;;;;;;;;;;;5027199;28;19941;-67
2021/10/03 06:26:05;;;;;;;;;;;;;;;;;;5028090;28;19928;-68
2021/10/03 06:28:31;;;;;;;;;;;;;;;;;;5028015;28;19912;-67
2021/10/03 06:30:57;;;;;;;;;;;;;;;;;;5026982;28;19910;-67
2021/10/03 06:33:23;;;;;;;;;;;;;;;;;;5027918;28;20347;-67
2021/10/03 06:35:49;;;;;;;;;;;;;;;;;;5028353;28;19969;-67
2021/10/03 06:38:14;;;;;;;;;;;;;;;;;;5027924;28;19964;-67
2021/10/03 06:40:42;;;;;;;;;;;;;;;;;;5027800;28;19948;-69
2021/10/03 06:43:08;;;;;;;;;;;;;;;;;;5027792;28;19918;-68
2021/10/03 06:45:33;;;;;;;;;;;;;;;;;;5027878;28;19912;-68
2021/10/03 06:47:59;;;;;;;;;;;;;;;;;;5026879;28;19992;-67
2021/10/03 06:50:26;;;;;;;;;;;;;;;;;;5027720;28;19912;-68
2021/10/03 06:52:52;;;;;;;;;;;;;;;;;;5027709;28;20252;-67
2021/10/03 06:55:18;;;;;;;;;;;;;;;;;;5027650;28;19913;-67
2021/10/03 06:57:44;;;;;;;;;;;;;;;;;;5027679;28;19912;-68
2021/10/03 07:00:09;;;;;;;;;;;;;;;;;;5027572;28;19914;-69
2021/10/03 07:02:35;;;;;;;;;;;;;;;;;;5027569;28;19906;-67
2021/10/03 07:05:01;;;;;;;;;;;;;;;;;;5027506;28;20287;-68
2021/10/03 07:07:28;;;;;;;;;;;;;;;;;;5027462;28;19906;-68
2021/10/03 07:09:54;;;;;;;;;;;;;;;;;;5027586;28;19932;-67
2021/10/03 07:12:20;;;;;;;;;;;;;;;;;;5027644;28;19909;-68
2021/10/03 07:14:46;;;;;;;;;;;;;;;;;;5027620;28;19980;-67
2021/10/03 07:17:16;;;;;;;;;;;;;;;;;;5027439;28;19935;-67
2021/10/03 07:19:42;;;;;;;;;;;;;;;;;;5027353;28;19977;-68
2021/10/03 07:22:08;;;;;;;;;;;;;;;;;;5027684;28;20079;-67
2021/10/03 07:24:34;;;;;;;;;;;;;;;;;;5027436;28;19913;-68
2021/10/03 07:27:00;;;;;;;;;;;;;;;;;;5027261;28;19905;-68
2021/10/03 07:29:25;;;;;;;;;;;;;;;;;;5027229;28;20386;-66
2021/10/03 07:31:51;;;;;;;;;;;;;;;;;;5027066;28;19905;-68
2021/10/03 07:34:17;;;;;;;;;;;;;;;;;;5026930;28;19913;-67
2021/10/03 07:36:43;;;;;;;;;;;;;;;;;;5027154;28;19912;-67
2021/10/03 07:39:09;;;;;;;;;;;;;;;;;;5027141;28;20284;-67
2021/10/03 07:41:35;;;;;;;;;;;;;;;;;;5025852;28;19912;-67
2021/10/03 07:44:01;;;;;;;;;;;;;;;;;;5026850;28;20272;-67
2021/10/03 07:46:28;;;;;;;;;;;;;;;;;;5026896;28;19905;-71
2021/10/03 07:48:54;;;;;;;;;;;;;;;;;;5026810;28;19912;-68
2021/10/03 07:51:20;;;;;;;;;;;;;;;;;;5027034;28;19908;-67
2021/10/03 07:53:46;;;;;;;;;;;;;;;;;;5027821;28;20260;-68
2021/10/03 07:56:12;;;;;;;;;;;;;;;;;;5027988;28;19905;-67
2021/10/03 07:58:38;;;;;;;;;;;;;;;;;;5028457;28;19955;-68
2021/10/03 08:01:04;;;;;;;;;;;;;;;;;;5031308;28;19913;-67
2021/10/03 08:03:30;;;;;;;;;;;;;;;;;;5031611;28;19996;-68
2021/10/03 08:05:56;;;;;;;;;;;;;;;;;;5030783;28;19906;-68
2021/10/03 08:08:21;;;;;;;;;;;;;;;;;;5030568;28;19912;-71
2021/10/03 08:10:47;;;;;;;;;;;;;;;;;;5030396;28;19992;-68
2021/10/03 08:13:14;;;;;;;;;;;;;;;;;;5030340;28;19906;-67
2021/10/03 08:15:41;;;;;;;;;;;;;;;;;;5030421;28;19953;-68
2021/10/03 08:18:07;;;;;;;;;;;;;;;;;;5030855;28;19912;-67
2021/10/03 08:20:33;;;;;;;;;;;;;;;;;;5029798;28;20276;-66
2021/10/03 08:22:59;;;;;;;;;;;;;;;;;;5030326;28;19909;-68
2021/10/03 08:25:24;;;;;;;;;;;;;;;;;;5030072;28;19905;-68
2021/10/03 08:27:50;;;;;;;;;;;;;;;;;;5031594;28;19913;-68
2021/10/03 08:30:16;;;;;;;;;;;;;;;;;;5032088;28;19905;-67
2021/10/03 08:32:43;;;;;;;;;;;;;;;;;;5032510;28;19964;-71
2021/10/03 08:35:09;;;;;;;;;;;;;;;;;;5031441;28;20333;-67
2021/10/03 08:37:35;;;;;;;;;;;;;;;;;;5029874;28;19936;-68
2021/10/03 08:40:01;;;;;;;;;;;;;;;;;;5030087;28;19906;-67
2021/10/03 08:42:27;;;;;;;;;;;;;;;;;;5029373;28;19912;-67
2021/10/03 08:44:53;;;;;;;;;;;;;;;;;;5029499;28;19984;-68
2021/10/03 08:47:19;;;;;;;;;;;;;;;;;;5029687;28;19913;-67
2021/10/03 08:49:45;;;;;;;;;;;;;;;;;;5028529;28;19905;-67
2021/10/03 08:52:11;;;;;;;;;;;;;;;;;;5029704;28;19906;-68
2021/10/03 08:54:37;;;;;;;;;;;;;;;;;;5029415;28;19910;-67
2021/10/03 08:57:03;;;;;;;;;;;;;;;;;;5029525;28;19913;-68
2021/10/03 08:59:29;;;;;;;;;;;;;;;;;;5029439;28;19909;-67
2021/10/03 09:01:55;;;;;;;;;;;;;;;;;;5029527;28;19905;-68
2021/10/03 09:04:20;;;;;;;;;;;;;;;;;;5029347;28;20005;-67
2021/10/03 09:06:46;;;;;;;;;;;;;;;;;;5028767;28;19905;-68
2021/10/03 09:09:12;;;;;;;;;;;;;;;;;;5026958;28;19958;-68
2021/10/03 09:11:39;;;;;;;;;;;;;;;;;;5025541;28;19963;-73
2021/10/03 09:14:06;;;;;;;;;;;;;;;;;;5041601;28;19916;-72
2021/10/03 09:16:36;;;;;;;;;;;;;;;;;;5044054;28;20387;-69
2021/10/03 09:19:02;;;;;;;;;;;;;;;;;;5041370;28;19905;-70
2021/10/03 09:21:28;;;;;;;;;;;;;;;;;;5041202;28;20410;-74
2021/10/03 09:23:54;;;;;;;;;;;;;;;;;;5041452;28;19984;-72
2021/10/03 09:26:20;;;;;;;;;;;;;;;;;;5042899;28;19964;-72
2021/10/03 09:28:46;;;;;;;;;;;;;;;;;;5045056;28;19909;-70
2021/10/03 09:31:12;;;;;;;;;;;;;;;;;;5046549;28;20352;-68
2021/10/03 09:33:39;;;;;;;;;;;;;;;;;;5045929;28;19920;-69
2021/10/03 09:36:04;;;;;;;;;;;;;;;;;;5045587;28;19912;-74
2021/10/03 09:38:30;;;;;;;;;;;;;;;;;;5043540;28;19905;-74
2021/10/03 09:40:56;;;;;;;;;;;;;;;;;;5043499;28;19909;-68
2021/10/03 09:43:22;;;;;;;;;;;;;;;;;;5043454;28;19923;-69
2021/10/03 09:45:48;;;;;;;;;;;;;;;;;;5042733;28;19984;-68
2021/10/03 09:48:14;;;;;;;;;;;;;;;;;;5046289;28;19905;-69
2021/10/03 09:50:40;;;;;;;;;;;;;;;;;;5045688;28;19908;-75
2021/10/03 09:53:06;;;;;;;;;;;;;;;;;;5043860;28;19905;-68
2021/10/03 09:55:32;;;;;;;;;;;;;;;;;;5045498;28;19909;-67
2021/10/03 09:57:58;;;;;;;;;;;;;;;;;;5046349;28;19913;-70
2021/10/03 10:00:24;;;;;;;;;;;;;;;;;;5042428;28;19916;-70
2021/10/03 10:02:50;;;;;;;;;;;;;;;;;;5043711;28;19905;-68
2021/10/03 10:05:16;;;;;;;;;;;;;;;;;;5044871;28;19905;-74
2021/10/03 10:07:42;;;;;;;;;;;;;;;;;;5045132;28;19935;-68
2021/10/03 10:10:08;;;;;;;;;;;;;;;;;;5044430;28;19909;-72
2021/10/03 10:12:34;;;;;;;;;;;;;;;;;;5044068;28;19911;-71
2021/10/03 10:15:00;;;;;;;;;;;;;;;;;;5043752;28;19948;-69
2021/10/03 10:17:26;;;;;;;;;;;;;;;;;;5045260;28;20046;-74
2021/10/03 10:19:55;;;;;;;;;;;;;;;;;;5044276;28;19905;-67
2021/10/03 10:22:22;;;;;;;;;;;;;;;;;;5043897;28;19905;-69
2021/10/03 10:24:49;;;;;;;;;;;;;;;;;;5043340;28;19995;-74
2021/10/03 10:27:15;;;;;;;;;;;;;;;;;;5041195;28;20326;-73
2021/10/03 10:29:41;;;;;;;;;;;;;;;;;;5043544;28;19905;-68
2021/10/03 10:32:07;;;;;;;;;;;;;;;;;;5041457;28;19905;-67
2021/10/03 10:34:33;;;;;;;;;;;;;;;;;;5042401;28;19932;-74
2021/10/03 10:36:59;;;;;;;;;;;;;;;;;;5043414;28;20248;-67
2021/10/03 10:39:25;;;;;;;;;;;;;;;;;;5045149;28;20431;-68
2021/10/03 10:41:51;;;;;;;;;;;;;;;;;;5045075;28;19905;-69
2021/10/03 10:44:17;;;;;;;;;;;;;;;;;;5043290;28;19940;-69
2021/10/03 10:46:43;;;;;;;;;;;;;;;;;;5041486;28;19912;-71
2021/10/03 10:49:09;;;;;;;;;;;;;;;;;;5043782;28;19960;-71
2021/10/03 10:51:35;;;;;;;;;;;;;;;;;;5041430;28;19909;-71
2021/10/03 10:54:01;;;;;;;;;;;;;;;;;;5039216;28;19916;-72
2021/10/03 10:56:27;;;;;;;;;;;;;;;;;;5040841;28;19915;-72
2021/10/03 10:58:53;;;;;;;;;;;;;;;;;;5039808;28;19905;-68
2021/10/03 11:01:19;;;;;;;;;;;;;;;;;;5040971;28;19905;-70
2021/10/03 11:03:49;;;;;;;;;;;;;;;;;;5040072;28;19940;-72
2021/10/03 11:06:14;;;;;;;;;;;;;;;;;;5039222;28;19947;-70
2021/10/03 11:08:40;;;;;;;;;;;;;;;;;;5039877;28;19909;-74
2021/10/03 11:11:10;;;;;;;;;;;;;;;;;;5040362;28;19916;-72
2021/10/03 11:13:35;;;;;;;;;;;;;;;;;;5039551;28;19909;-73
2021/10/03 11:16:01;;;;;;;;;;;;;;;;;;5038715;28;19905;-69
2021/10/03 11:18:27;;;;;;;;;;;;;;;;;;5039248;28;19905;-71
2021/10/03 11:20:57;;;;;;;;;;;;;;;;;;5039800;28;19905;-73
2021/10/03 11:23:23;;;;;;;;;;;;;;;;;;5039289;28;19951;-70
2021/10/03 11:25:49;;;;;;;;;;;;;;;;;;5039892;28;19905;-73
2021/10/03 11:28:15;;;;;;;;;;;;;;;;;;5041455;28;19905;-68
2021/10/03 11:30:41;;;;;;;;;;;;;;;;;;5041380;28;19905;-68
2021/10/03 11:33:07;;;;;;;;;;;;;;;;;;5041846;28;19905;-71
2021/10/03 11:35:33;;;;;;;;;;;;;;;;;;5047540;28;19909;-72
2021/10/03 11:37:59;;;;;;;;;;;;;;;;;;5049940;28;19913;-68
2021/10/03 11:40:25;;;;;;;;;;;;;;;;;;5048931;28;19929;-73
2021/10/03 11:42:51;;;;;;;;;;;;;;;;;;5048801;28;19912;-72
2021/10/03 11:45:17;;;;;;;;;;;;;;;;;;5049496;28;19905;-68
2021/10/03 11:47:43;;;;;;;;;;;;;;;;;;5048160;28;20417;-71
2021/10/03 11:50:10;;;;;;;;;;;;;;;;;;5049304;28;20003;-67
2021/10/03 11:52:37;;;;;;;;;;;;;;;;;;5047276;28;19905;-69
2021/10/03 11:55:03;;;;;;;;;;;;;;;;;;5050508;28;19936;-69
2021/10/03 11:57:29;;;;;;;;;;;;;;;;;;5051197;28;19905;-67
2021/10/03 11:59:55;;;;;;;;;;;;;;;;;;5049130;28;19905;-66
2021/10/03 12:02:23;;;;;;;;;;;;;;;;;;5049394;28;19905;-68
2021/10/03 12:04:49;;;;;;;;;;;;;;;;;;5051130;28;19905;-67
2021/10/03 12:07:15;;;;;;;;;;;;;;;;;;5050085;28;19912;-67
2021/10/03 12:09:41;;;;;;;;;;;;;;;;;;5049402;28;19905;-69
2021/10/03 12:12:07;;;;;;;;;;;;;;;;;;5049285;28;20315;-68
2021/10/03 12:14:33;;;;;;;;;;;;;;;;;;5051810;28;19909;-67
2021/10/03 12:16:59;;;;;;;;;;;;;;;;;;5050481;28;19915;-70
2021/10/03 12:19:32;;;;;;;;;;;;;;;;;;5050574;28;19963;-70
2021/10/03 12:21:58;;;;;;;;;;;;;;;;;;5049432;28;19909;-68
2021/10/03 12:24:24;;;;;;;;;;;;;;;;;;5051233;28;19905;-66
2021/10/03 12:26:51;;;;;;;;;;;;;;;;;;5051428;28;19905;-66
2021/10/03 12:29:21;;;;;;;;;;;;;;;;;;5051684;28;19905;-66
2021/10/03 12:31:47;;;;;;;;;;;;;;;;;;5050411;28;19905;-71
2021/10/03 12:34:13;;;;;;;;;;;;;;;;;;5050642;28;19944;-66
2021/10/03 12:36:39;;;;;;;;;;;;;;;;;;5049324;28;19905;-71
2021/10/03 12:39:05;;;;;;;;;;;;;;;;;;5049264;28;20347;-69
2021/10/03 12:41:31;;;;;;;;;;;;;;;;;;5051660;28;19911;-71
2021/10/03 12:43:57;;;;;;;;;;;;;;;;;;5051503;28;19917;-67
2021/10/03 12:46:23;;;;;;;;;;;;;;;;;;5045104;28;20363;-72
2021/10/03 12:48:49;;;;;;;;;;;;;;;;;;5038554;28;19909;-71
2021/10/03 12:51:15;;;;;;;;;;;;;;;;;;5038501;28;19905;-73
2021/10/03 12:53:41;;;;;;;;;;;;;;;;;;5042009;28;19927;-67
2021/10/03 12:56:07;;;;;;;;;;;;;;;;;;5047109;28;19971;-72
2021/10/03 12:58:33;;;;;;;;;;;;;;;;;;5046130;28;19905;-70
2021/10/03 13:00:59;;;;;;;;;;;;;;;;;;5045645;28;20312;-65
2021/10/03 13:03:25;;;;;;;;;;;;;;;;;;5047622;28;19905;-69
2021/10/03 13:05:50;;;;;;;;;;;;;;;;;;5046191;28;19976;-71
2021/10/03 13:08:16;;;;;;;;;;;;;;;;;;5046229;28;19912;-69
2021/10/03 13:10:42;;;;;;;;;;;;;;;;;;5046525;28;19905;-70
2021/10/03 13:13:08;;;;;;;;;;;;;;;;;;5047387;28;19909;-67
2021/10/03 13:15:34;;;;;;;;;;;;;;;;;;5046508;28;19997;-69
2021/10/03 13:18:00;;;;;;;;;;;;;;;;;;5045712;28;19905;-69
2021/10/03 13:20:26;;;;;;;;;;;;;;;;;;5045978;28;19912;-72
2021/10/03 13:22:52;;;;;;;;;;;;;;;;;;5047149;28;19968;-69
2021/10/03 13:25:18;;;;;;;;;;;;;;;;;;5047758;28;19913;-66
2021/10/03 13:27:45;;;;;;;;;;;;;;;;;;5041850;28;19905;-76
2021/10/03 13:30:12;;;;;;;;;;;;;;;;;;5038417;28;19950;-69
2021/10/03 13:32:37;;;;;;;;;;;;;;;;;;5038172;28;20006;-74
2021/10/03 13:35:03;;;;;;;;;;;;;;;;;;5036753;28;19940;-76
2021/10/03 13:37:29;;;;;;;;;;;;;;;;;;5037548;28;19905;-75
2021/10/03 13:39:55;;;;;;;;;;;;;;;;;;5037730;28;19913;-75
2021/10/03 13:42:21;;;;;;;;;;;;;;;;;;5038521;28;19912;-74
2021/10/03 13:44:47;;;;;;;;;;;;;;;;;;5043732;28;19951;-65
2021/10/03 13:47:13;;;;;;;;;;;;;;;;;;5044745;28;19909;-71
2021/10/03 13:49:39;;;;;;;;;;;;;;;;;;5047065;28;19905;-67
2021/10/03 13:52:05;;;;;;;;;;;;;;;;;;5047472;28;19936;-67
2021/10/03 13:54:31;;;;;;;;;;;;;;;;;;5047920;28;19909;-68
2021/10/03 13:56:57;;;;;;;;;;;;;;;;;;5046704;28;19905;-67
2021/10/03 13:59:23;;;;;;;;;;;;;;;;;;5047584;28;19905;-68
2021/10/03 14:01:49;;;;;;;;;;;;;;;;;;5047194;28;19916;-71
2021/10/03 14:04:15;;;;;;;;;;;;;;;;;;5046761;28;19905;-67
2021/10/03 14:06:41;;;;;;;;;;;;;;;;;;5046275;28;19912;-68
2021/10/03 14:09:08;;;;;;;;;;;;;;;;;;5047249;28;19905;-66
2021/10/03 14:11:34;;;;;;;;;;;;;;;;;;5047686;28;19905;-68
2021/10/03 14:14:00;;;;;;;;;;;;;;;;;;5047277;28;20023;-66
2021/10/03 14:16:26;;;;;;;;;;;;;;;;;;5047662;28;19911;-66
2021/10/03 14:18:53;;;;;;;;;;;;;;;;;;5047058;28;20351;-69
2021/10/03 14:21:19;;;;;;;;;;;;;;;;;;5046039;28;20374;-69
2021/10/03 14:23:45;;;;;;;;;;;;;;;;;;5046030;28;19966;-67
2021/10/03 14:26:10;;;;;;;;;;;;;;;;;;5046133;28;20287;-67
2021/10/03 14:28:36;;;;;;;;;;;;;;;;;;5046157;28;19976;-66
2021/10/03 14:31:02;;;;;;;;;;;;;;;;;;5046355;28;19928;-68
2021/10/03 14:33:28;;;;;;;;;;;;;;;;;;5046183;28;19909;-69
2021/10/03 14:35:54;;;;;;;;;;;;;;;;;;5046423;28;20284;-72
2021/10/03 14:38:20;;;;;;;;;;;;;;;;;;5046362;28;19912;-66
2021/10/03 14:40:46;;;;;;;;;;;;;;;;;;5046575;28;19973;-71
2021/10/03 14:43:12;;;;;;;;;;;;;;;;;;5046213;28;19921;-67
2021/10/03 14:45:38;;;;;;;;;;;;;;;;;;5046759;28;19920;-66
2021/10/03 14:48:04;;;;;;;;;;;;;;;;;;5046528;28;19955;-68
2021/10/03 14:50:30;;;;;;;;;;;;;;;;;;5046741;28;19935;-66
2021/10/03 14:52:57;;;;;;;;;;;;;;;;;;5046577;28;19905;-65
2021/10/03 14:55:23;;;;;;;;;;;;;;;;;;5046549;28;19909;-65
2021/10/03 14:57:49;;;;;;;;;;;;;;;;;;5045876;28;19984;-70
2021/10/03 15:00:15;;;;;;;;;;;;;;;;;;5044574;28;20301;-67
2021/10/03 15:02:41;;;;;;;;;;;;;;;;;;5047102;28;19905;-65
2021/10/03 15:05:07;;;;;;;;;;;;;;;;;;5046589;28;19905;-65
2021/10/03 15:07:33;;;;;;;;;;;;;;;;;;5045218;28;19905;-65
2021/10/03 15:09:59;;;;;;;;;;;;;;;;;;5044210;28;19959;-68
2021/10/03 15:12:25;;;;;;;;;;;;;;;;;;5046603;28;19905;-69
2021/10/03 15:14:51;;;;;;;;;;;;;;;;;;5046534;28;19909;-65
2021/10/03 15:17:17;;;;;;;;;;;;;;;;;;5046439;28;19905;-69
2021/10/03 15:19:43;;;;;;;;;;;;;;;;;;5046301;28;19966;-65
2021/10/03 15:22:09;;;;;;;;;;;;;;;;;;5045944;28;19916;-66
2021/10/03 15:24:35;;;;;;;;;;;;;;;;;;5046446;28;19912;-67
2021/10/03 15:27:01;;;;;;;;;;;;;;;;;;5046546;28;19905;-65
2021/10/03 15:29:27;;;;;;;;;;;;;;;;;;5046297;28;19905;-66
2021/10/03 15:31:52;;;;;;;;;;;;;;;;;;5046278;28;19905;-65
2021/10/03 15:34:18;;;;;;;;;;;;;;;;;;5046267;28;19967;-68
2021/10/03 15:36:44;;;;;;;;;;;;;;;;;;5046799;28;19905;-66
2021/10/03 15:39:10;;;;;;;;;;;;;;;;;;5046569;28;20264;-65
2021/10/03 15:41:36;;;;;;;;;;;;;;;;;;5046148;28;19929;-69
2021/10/03 15:44:02;;;;;;;;;;;;;;;;;;5045770;28;19924;-67
2021/10/03 15:46:28;;;;;;;;;;;;;;;;;;5046034;28;19909;-69
2021/10/03 15:48:54;;;;;;;;;;;;;;;;;;5046212;28;19912;-66
2021/10/03 15:51:20;;;;;;;;;;;;;;;;;;5046147;28;19912;-66
2021/10/03 15:53:46;;;;;;;;;;;;;;;;;;5046112;28;19972;-67
2021/10/03 15:56:12;;;;;;;;;;;;;;;;;;5046022;28;19905;-66
2021/10/03 15:58:38;;;;;;;;;;;;;;;;;;5046188;28;20307;-70
2021/10/03 16:01:04;;;;;;;;;;;;;;;;;;5046221;28;19936;-68
2021/10/03 16:03:30;;;;;;;;;;;;;;;;;;5044963;28;19905;-67
2021/10/03 16:05:56;;;;;;;;;;;;;;;;;;5045059;28;19915;-69
2021/10/03 16:08:22;;;;;;;;;;;;;;;;;;5043765;28;19962;-65
2021/10/03 16:10:47;;;;;;;;;;;;;;;;;;5044754;28;19905;-69
2021/10/03 16:13:13;;;;;;;;;;;;;;;;;;5042460;28;19905;-65
2021/10/03 16:15:39;;;;;;;;;;;;;;;;;;5045361;28;20422;-65
2021/10/03 16:18:05;;;;;;;;;;;;;;;;;;5044695;28;19905;-66
2021/10/03 16:20:31;;;;;;;;;;;;;;;;;;5045718;28;19975;-72
2021/10/03 16:22:58;;;;;;;;;;;;;;;;;;5049032;28;19905;-65
2021/10/03 16:25:24;;;;;;;;;;;;;;;;;;5049240;28;20227;-65
2021/10/03 16:27:50;;;;;;;;;;;;;;;;;;5049576;28;20348;-67
2021/10/03 16:30:16;;;;;;;;;;;;;;;;;;5049905;28;19968;-67
2021/10/03 16:32:42;;;;;;;;;;;;;;;;;;5048202;28;19905;-67
2021/10/03 16:35:08;;;;;;;;;;;;;;;;;;5049503;28;19909;-66
2021/10/03 16:37:34;;;;;;;;;;;;;;;;;;5049677;28;19972;-65